sensor_id;sensor_type;location;lat;lon;timestamp;pressure;altitude;pressure_sealevel;temperature;humidity
74913;BME280;63878;55.624;37.304;2023-03-31T00:01:53;98315.47;;;-3.53;63.39
74913;BME280;63878;55.624;37.304;2023-03-31T00:11:53;98316.47;;;-3.56;63.54
74913;BME280;63878;55.624;37.304;2023-03-31T00:21:54;98311.47;;;-3.59;63.58
74913;BME280;63878;55.624;37.304;2023-03-31T00:31:54;98312.78;;;-3.89;64.76
74913;BME280;63878;55.624;37.304;2023-03-31T00:41:55;98317.00;;;-3.68;64.54
74913;BME280;63878;55.624;37.304;2023-03-31T00:52:00;98307.75;;;-3.93;65.12
74913;BME280;63878;55.624;37.304;2023-03-31T01:02:03;98296.59;;;-4.13;65.19
74913;BME280;63878;55.624;37.304;2023-03-31T01:12:06;98291.69;;;-4.40;66.26
74913;BME280;63878;55.624;37.304;2023-03-31T01:22:17;98224.00;;;-4.84;66.85
74913;BME280;63878;55.624;37.304;2023-03-31T02:03:23;98242.72;;;-4.38;65.61
74913;BME280;63878;55.624;37.304;2023-03-31T02:13:27;98239.13;;;-4.77;66.56
74913;BME280;63878;55.624;37.304;2023-03-31T02:23:30;98247.97;;;-4.21;64.56
74913;BME280;63878;55.624;37.304;2023-03-31T02:33:32;98258.09;;;-4.16;64.57
74913;BME280;63878;55.624;37.304;2023-03-31T02:43:33;98239.63;;;-4.07;64.25
74913;BME280;63878;55.624;37.304;2023-03-31T02:53:59;98245.59;;;-3.86;64.11
74913;BME280;63878;55.624;37.304;2023-03-31T03:24:34;98240.38;;;-4.24;64.98
74913;BME280;63878;55.624;37.304;2023-03-31T03:34:34;98218.69;;;-4.59;65.15
74913;BME280;63878;55.624;37.304;2023-03-31T03:44:35;98203.25;;;-4.81;66.06
74913;BME280;63878;55.624;37.304;2023-03-31T03:54:35;98187.78;;;-5.02;67.87
74913;BME280;63878;55.624;37.304;2023-03-31T04:04:36;98166.38;;;-5.02;66.78
74913;BME280;63878;55.624;37.304;2023-03-31T04:14:36;98181.84;;;-4.61;66.10
74913;BME280;63878;55.624;37.304;2023-03-31T04:24:37;98181.72;;;-3.99;63.49
74913;BME280;63878;55.624;37.304;2023-03-31T04:34:37;98157.09;;;-4.25;64.31
74913;BME280;63878;55.624;37.304;2023-03-31T04:44:38;98147.50;;;-3.83;64.42
74913;BME280;63878;55.624;37.304;2023-03-31T04:54:38;98118.88;;;-3.60;62.15
74913;BME280;63878;55.624;37.304;2023-03-31T05:04:39;98130.72;;;-3.92;63.40
74913;BME280;63878;55.624;37.304;2023-03-31T05:14:40;98128.84;;;-2.99;60.84
74913;BME280;63878;55.624;37.304;2023-03-31T05:24:40;98129.34;;;-3.44;61.78
74913;BME280;63878;55.624;37.304;2023-03-31T05:34:41;98154.59;;;-2.63;59.53
74913;BME280;63878;55.624;37.304;2023-03-31T05:44:41;98142.91;;;-3.04;61.68
74913;BME280;63878;55.624;37.304;2023-03-31T05:54:42;98128.59;;;-2.60;61.37
74913;BME280;63878;55.624;37.304;2023-03-31T06:04:42;98126.72;;;-3.25;62.63
74913;BME280;63878;55.624;37.304;2023-03-31T06:14:43;98124.59;;;-3.17;62.27
74913;BME280;63878;55.624;37.304;2023-03-31T06:24:43;98118.81;;;-2.70;62.58
74913;BME280;63878;55.624;37.304;2023-03-31T06:34:44;98110.56;;;-3.12;62.94
74913;BME280;63878;55.624;37.304;2023-03-31T06:44:44;98105.19;;;-2.57;60.96
74913;BME280;63878;55.624;37.304;2023-03-31T06:54:45;98118.09;;;-2.39;61.44
74913;BME280;63878;55.624;37.304;2023-03-31T07:04:45;98125.47;;;-2.49;61.26
74913;BME280;63878;55.624;37.304;2023-03-31T07:14:46;98106.72;;;-2.04;59.47
74913;BME280;63878;55.624;37.304;2023-03-31T07:24:46;98108.59;;;-2.56;61.96
74913;BME280;63878;55.624;37.304;2023-03-31T07:34:47;98102.94;;;-2.47;61.18
74913;BME280;63878;55.624;37.304;2023-03-31T07:44:48;98099.75;;;-2.35;61.28
74913;BME280;63878;55.624;37.304;2023-03-31T07:54:49;98085.34;;;-2.07;60.89
74913;BME280;63878;55.624;37.304;2023-03-31T08:04:51;98076.03;;;-1.78;60.14
74913;BME280;63878;55.624;37.304;2023-03-31T08:14:52;98074.66;;;-2.01;61.11
74913;BME280;63878;55.624;37.304;2023-03-31T08:24:52;98056.63;;;-2.50;61.39
74913;BME280;63878;55.624;37.304;2023-03-31T08:34:52;98060.13;;;-2.51;61.86
74913;BME280;63878;55.624;37.304;2023-03-31T08:44:59;98035.97;;;-2.34;60.72
74913;BME280;63878;55.624;37.304;2023-03-31T08:55:09;98024.63;;;-2.32;61.23
74913;BME280;63878;55.624;37.304;2023-03-31T09:05:16;98010.78;;;-1.83;60.66
74913;BME280;63878;55.624;37.304;2023-03-31T09:15:27;98000.59;;;-2.02;61.17
74913;BME280;63878;55.624;37.304;2023-03-31T09:25:35;97996.28;;;-2.02;60.06
74913;BME280;63878;55.624;37.304;2023-03-31T09:35:37;97973.72;;;-1.84;60.31
74913;BME280;63878;55.624;37.304;2023-03-31T09:45:38;97946.41;;;-1.43;60.39
74913;BME280;63878;55.624;37.304;2023-03-31T09:56:00;97942.72;;;-1.25;59.31
74913;BME280;63878;55.624;37.304;2023-03-31T10:06:07;97938.66;;;-1.01;58.67
74913;BME280;63878;55.624;37.304;2023-03-31T10:16:21;97918.97;;;-1.03;58.72
74913;BME280;63878;55.624;37.304;2023-03-31T10:26:26;97910.06;;;-0.71;58.12
74913;BME280;63878;55.624;37.304;2023-03-31T10:36:28;97913.88;;;-1.05;59.09
74913;BME280;63878;55.624;37.304;2023-03-31T10:46:46;97893.06;;;-1.03;60.12
74913;BME280;63878;55.624;37.304;2023-03-31T10:56:50;97874.38;;;-0.94;59.46
74913;BME280;63878;55.624;37.304;2023-03-31T11:48:26;97839.22;;;-0.57;59.24
74913;BME280;63878;55.624;37.304;2023-03-31T12:08:53;97816.75;;;-0.44;58.73
74913;BME280;63878;55.624;37.304;2023-03-31T12:19:27;97786.97;;;0.40;59.64
74913;BME280;63878;55.624;37.304;2023-03-31T12:40:19;97775.25;;;0.09;58.50
74913;BME280;63878;55.624;37.304;2023-03-31T13:00:29;97773.69;;;-0.07;60.05
74913;BME280;63878;55.624;37.304;2023-03-31T13:10:31;97730.00;;;0.00;59.56
74913;BME280;63878;55.624;37.304;2023-03-31T13:20:37;97738.94;;;0.09;60.43
74913;BME280;63878;55.624;37.304;2023-03-31T13:40:53;97701.84;;;-0.57;62.63
74913;BME280;63878;55.624;37.304;2023-03-31T13:51:16;97724.59;;;-0.35;63.34
74913;BME280;63878;55.624;37.304;2023-03-31T14:11:50;97712.66;;;-0.38;64.55
74913;BME280;63878;55.624;37.304;2023-03-31T14:32:06;97700.75;;;-0.27;66.64
74913;BME280;63878;55.624;37.304;2023-03-31T14:42:13;97689.75;;;-0.44;67.42
74913;BME280;63878;55.624;37.304;2023-03-31T14:52:20;97697.72;;;-0.34;68.08
74913;BME280;63878;55.624;37.304;2023-03-31T15:02:41;97708.81;;;-0.57;69.88
74913;BME280;63878;55.624;37.304;2023-03-31T15:12:42;97685.22;;;-0.80;70.54
74913;BME280;63878;55.624;37.304;2023-03-31T15:22:43;97717.63;;;-0.87;72.13
74913;BME280;63878;55.624;37.304;2023-03-31T15:32:43;97712.50;;;-1.01;72.96
74913;BME280;63878;55.624;37.304;2023-03-31T15:42:45;97702.97;;;-1.01;72.34
74913;BME280;63878;55.624;37.304;2023-03-31T15:52:51;97693.00;;;-1.07;72.79
74913;BME280;63878;55.624;37.304;2023-03-31T16:02:52;97691.22;;;-0.79;72.03
74913;BME280;63878;55.624;37.304;2023-03-31T16:13:02;97677.19;;;-1.29;73.46
74913;BME280;63878;55.624;37.304;2023-03-31T16:23:14;97701.28;;;-0.75;71.95
74913;BME280;63878;55.624;37.304;2023-03-31T16:33:21;97699.31;;;-0.31;69.93
74913;BME280;63878;55.624;37.304;2023-03-31T16:43:25;97698.44;;;-0.57;70.43
74913;BME280;63878;55.624;37.304;2023-03-31T16:53:31;97701.19;;;-0.73;72.00
74913;BME280;63878;55.624;37.304;2023-03-31T17:03:32;97696.56;;;-0.95;72.71
74913;BME280;63878;55.624;37.304;2023-03-31T17:13:33;97688.13;;;-0.84;72.14
74913;BME280;63878;55.624;37.304;2023-03-31T17:23:34;97678.56;;;-1.24;73.69
74913;BME280;63878;55.624;37.304;2023-03-31T17:33:35;97678.25;;;-0.92;72.40
74913;BME280;63878;55.624;37.304;2023-03-31T17:43:36;97671.41;;;-0.93;72.72
74913;BME280;63878;55.624;37.304;2023-03-31T17:53:38;97667.16;;;-0.94;71.83
74913;BME280;63878;55.624;37.304;2023-03-31T18:03:38;97670.34;;;-1.03;72.75
74913;BME280;63878;55.624;37.304;2023-03-31T18:13:39;97664.88;;;-0.99;71.72
74913;BME280;63878;55.624;37.304;2023-03-31T18:23:45;97656.25;;;-0.99;72.86
74913;BME280;63878;55.624;37.304;2023-03-31T18:33:46;97657.63;;;-0.94;71.80
74913;BME280;63878;55.624;37.304;2023-03-31T18:43:47;97652.28;;;-1.18;73.01
74913;BME280;63878;55.624;37.304;2023-03-31T18:53:48;97638.97;;;-1.26;71.95
74913;BME280;63878;55.624;37.304;2023-03-31T19:03:48;97641.44;;;-1.10;71.08
74913;BME280;63878;55.624;37.304;2023-03-31T19:13:49;97628.88;;;-1.16;71.06
74913;BME280;63878;55.624;37.304;2023-03-31T19:23:50;97615.88;;;-1.29;71.68
74913;BME280;63878;55.624;37.304;2023-03-31T19:33:50;97620.03;;;-1.53;73.78
74913;BME280;63878;55.624;37.304;2023-03-31T19:43:51;97619.81;;;-1.63;74.79
74913;BME280;63878;55.624;37.304;2023-03-31T19:53:52;97615.31;;;-1.88;74.80
74913;BME280;63878;55.624;37.304;2023-03-31T20:03:52;97605.25;;;-1.78;74.39
74913;BME280;63878;55.624;37.304;2023-03-31T20:13:53;97602.81;;;-1.67;73.88
74913;BME280;63878;55.624;37.304;2023-03-31T20:23:54;97593.22;;;-1.79;74.20
74913;BME280;63878;55.624;37.304;2023-03-31T20:33:56;97586.06;;;-2.03;74.77
74913;BME280;63878;55.624;37.304;2023-03-31T20:43:57;97586.84;;;-1.74;73.99
74913;BME280;63878;55.624;37.304;2023-03-31T20:53:59;97592.75;;;-1.72;73.31
74913;BME280;63878;55.624;37.304;2023-03-31T21:04:01;97599.44;;;-1.82;73.65
74913;BME280;63878;55.624;37.304;2023-03-31T21:14:02;97590.91;;;-2.25;75.88
74913;BME280;63878;55.624;37.304;2023-03-31T21:24:03;97585.81;;;-1.98;73.94
74913;BME280;63878;55.624;37.304;2023-03-31T21:34:04;97594.97;;;-1.80;73.75
74913;BME280;63878;55.624;37.304;2023-03-31T21:44:05;97593.47;;;-1.96;74.59
74913;BME280;63878;55.624;37.304;2023-03-31T21:54:05;97589.03;;;-2.09;75.50
74913;BME280;63878;55.624;37.304;2023-03-31T22:04:06;97585.16;;;-2.02;73.93
74913;BME280;63878;55.624;37.304;2023-03-31T22:14:06;97572.44;;;-2.33;75.06
74913;BME280;63878;55.624;37.304;2023-03-31T22:24:09;97576.72;;;-2.32;76.07
74913;BME280;63878;55.624;37.304;2023-03-31T22:34:10;97570.16;;;-2.38;75.32
74913;BME280;63878;55.624;37.304;2023-03-31T22:44:11;97567.84;;;-2.42;75.50
74913;BME280;63878;55.624;37.304;2023-03-31T22:54:13;97572.19;;;-2.43;75.44
74913;BME280;63878;55.624;37.304;2023-03-31T23:04:14;97519.78;;;-2.88;75.82
74913;BME280;63878;55.624;37.304;2023-03-31T23:14:15;97541.09;;;-2.56;75.91
74913;BME280;63878;55.624;37.304;2023-03-31T23:24:15;97550.56;;;-2.28;74.78
74913;BME280;63878;55.624;37.304;2023-03-31T23:34:16;97552.38;;;-2.01;73.92
74913;BME280;63878;55.624;37.304;2023-03-31T23:44:16;97543.34;;;-2.08;73.65
74913;BME280;63878;55.624;37.304;2023-03-31T23:54:17;97545.56;;;-2.16;74.81
